KMXO/MXO METAR and TAF weather

Enter ICAO airport designator
Station Type Date Time Source
KMXO METAR 2019/06/27 03:55 UTC NOAA

KMXO 270355Z AUTO 00000KT 10SM CLR 22/22 A3008 RMK AO2


Station Type Date Time Source
KMXO Decoded METAR 2019/06/27 03:55 UTC NOAA

Monticello Municipal, IA, United States (KMXO) 42-14N 091-10W
Jun 26, 2019 - 11:55 PM EDT / 2019.06.27 0355 UTC
Wind: Calm:0
Visibility: 10 mile(s):0
Sky conditions: clear
Temperature: 71 F (22 C)
Dew Point: 71 F (22 C)
Relative Humidity: 100%
Pressure (altimeter): 30.08 in. Hg (1018 hPa)
ob: KMXO 270355Z AUTO 00000KT 10SM CLR 22/22 A3008 RMK AO2
cycle: 4

Station Type Date Time Source
KMXO TAF UTC NOAA

Error!

Example: see airport list